LOWW/VIE METAR and TAF weather

Enter ICAO airport designator
Station Type Date Time Source
LOWW METAR 2021/03/02 13:20 UTC NOAA

LOWW 021320Z 06004KT 010V100 8000 NSC 07/03 Q1034 NOSIG


Station Type Date Time Source
LOWW Decoded METAR 2021/03/02 13:20 UTC NOAA

Wien / Schwechat-Flughafen, Austria (LOWW) 48-07N 016-34E 190M
Mar 02, 2021 - 08:20 AM EST / 2021.03.02 1320 UTC
Wind: from the ENE (060 degrees) at 5 MPH (4 KT) (direction variable):0
Visibility: 4 mile(s):0
Temperature: 44 F (7 C)
Dew Point: 37 F (3 C)
Relative Humidity: 75%
Pressure (altimeter): 30.53 in. Hg (1034 hPa)
ob: LOWW 021320Z 06004KT 010V100 8000 NSC 07/03 Q1034 NOSIG
cycle: 13

Station Type Date Time Source
LOWW TAF 2021/03/02 12:20 UTC NOAA

TAF LOWW 021115Z 0212/0318 VRB03KT CAVOK TX13/0315Z TNM01/0304Z
TEMPO 0212/0213 4000 BKN005
BECMG 0222/0300 2000 BCFG NSC
BECMG 0300/0303 0600 FZFG BKN002
TEMPO 0303/0308 0200 VV001
BECMG 0308/0310 4000 NSW SCT002 BKN004
FM031100 VRB03KT CAVOK

Example: see airport list